createdAt,value
2022-09-12T00:01:13.919Z,16.00
2022-09-12T00:03:44.432Z,16.00
2022-09-12T00:09:02.700Z,15.90
2022-09-12T00:11:30.034Z,15.90
2022-09-12T00:14:10.795Z,15.80
2022-09-12T00:16:37.921Z,15.80
2022-09-12T00:19:08.435Z,15.80
2022-09-12T00:21:41.104Z,15.70
2022-09-12T00:24:22.902Z,15.80
2022-09-12T00:26:49.638Z,15.70
2022-09-12T00:29:20.326Z,15.70
2022-09-12T00:31:59.179Z,15.70
2022-09-12T00:34:25.909Z,15.70
2022-09-12T00:37:05.197Z,15.60
2022-09-12T00:39:48.071Z,15.60
2022-09-12T00:42:14.756Z,15.60
2022-09-12T00:44:48.089Z,15.60
2022-09-12T00:47:32.384Z,15.50
2022-09-12T00:50:12.380Z,15.50
2022-09-12T00:52:55.016Z,15.50
2022-09-12T00:55:38.306Z,15.50
2022-09-12T01:01:06.079Z,15.40
2022-09-12T01:03:38.846Z,15.40
2022-09-12T01:09:01.460Z,15.40
2022-09-12T01:11:40.572Z,15.30
2022-09-12T01:14:08.294Z,15.30
2022-09-12T01:16:38.246Z,15.30
2022-09-12T01:19:25.137Z,15.30
2022-09-12T01:22:24.607Z,15.30
2022-09-12T01:25:21.912Z,15.30
2022-09-12T01:28:13.069Z,15.30
2022-09-12T01:30:59.300Z,15.30
2022-09-12T01:33:53.030Z,15.30
2022-09-12T01:36:44.392Z,15.20
2022-09-12T01:39:30.721Z,15.20
2022-09-12T01:45:15.197Z,15.10
2022-09-12T01:47:56.530Z,15.10
2022-09-12T01:50:29.619Z,15.10
2022-09-12T01:53:15.260Z,15.10
2022-09-12T01:56:00.108Z,15.10
2022-09-12T01:58:38.725Z,15.10
2022-09-12T02:01:21.605Z,15.10
2022-09-12T02:07:12.526Z,15.10
2022-09-12T02:10:09.922Z,15.00
2022-09-12T02:13:09.689Z,15.10
2022-09-12T02:15:41.984Z,15.00
2022-09-12T02:18:12.448Z,15.00
2022-09-12T02:20:51.776Z,15.10
2022-09-12T02:23:26.010Z,15.10
2022-09-12T02:26:04.456Z,15.00
2022-09-12T02:28:36.124Z,15.00
2022-09-12T02:31:23.741Z,15.00
2022-09-12T02:34:18.133Z,14.90
2022-09-12T02:36:52.101Z,15.00
2022-09-12T02:42:21.178Z,14.90
2022-09-12T02:44:48.465Z,14.90
2022-09-12T02:47:23.035Z,14.80
2022-09-12T02:50:02.298Z,14.80
2022-09-12T02:52:29.527Z,14.80
2022-09-12T02:54:58.247Z,14.80
2022-09-12T03:00:09.343Z,14.80
2022-09-12T03:03:12.899Z,14.80
2022-09-12T03:05:59.276Z,14.80
2022-09-12T03:08:42.056Z,14.80
2022-09-12T03:11:50.944Z,14.70
2022-09-12T03:14:43.780Z,14.70
2022-09-12T03:17:27.464Z,14.70
2022-09-12T03:20:21.446Z,14.70
2022-09-12T03:23:11.681Z,14.70
2022-09-12T03:31:25.694Z,14.70
2022-09-12T03:36:55.446Z,14.60
2022-09-12T03:39:35.271Z,14.60
2022-09-12T03:42:02.390Z,14.60
2022-09-12T03:44:36.632Z,14.60
2022-09-12T03:47:06.921Z,14.60
2022-09-12T03:49:42.912Z,14.60
2022-09-12T03:52:21.885Z,14.60
2022-09-12T03:54:48.813Z,14.70
2022-09-12T03:57:15.808Z,14.70
2022-09-12T04:06:41.920Z,14.70
2022-09-12T04:09:09.947Z,14.70
2022-09-12T04:11:36.696Z,14.70
2022-09-12T04:14:12.239Z,14.70
2022-09-12T04:16:38.915Z,14.70
2022-09-12T04:19:11.629Z,14.60
2022-09-12T04:21:38.710Z,14.60
2022-09-12T04:24:08.829Z,14.60
2022-09-12T04:26:35.707Z,14.60
2022-09-12T04:29:09.859Z,14.60
2022-09-12T04:31:36.477Z,14.60
2022-09-12T04:34:03.161Z,14.60
2022-09-12T04:36:32.704Z,14.60
2022-09-12T04:39:00.192Z,14.60
2022-09-12T04:41:32.302Z,14.60
2022-09-12T04:44:11.434Z,14.60
2022-09-12T04:46:45.730Z,14.60
2022-09-12T04:49:13.862Z,14.60
2022-09-12T04:51:54.327Z,14.60
2022-09-12T04:54:39.841Z,14.60
2022-09-12T04:57:06.540Z,14.60
2022-09-12T04:59:39.402Z,14.60
2022-09-12T05:02:15.051Z,14.60
2022-09-12T05:04:41.748Z,14.60
2022-09-12T05:07:21.816Z,14.60
2022-09-12T05:09:57.992Z,14.60
2022-09-12T05:16:32.490Z,14.70
2022-09-12T05:19:47.787Z,14.70
2022-09-12T05:22:14.496Z,14.60
2022-09-12T05:24:41.116Z,14.60
2022-09-12T05:27:10.281Z,14.60
2022-09-12T05:29:51.940Z,14.60
2022-09-12T05:32:18.883Z,14.60
2022-09-12T05:34:45.544Z,14.60
2022-09-12T05:37:28.404Z,14.60
2022-09-12T05:40:06.851Z,14.60
2022-09-12T05:42:33.702Z,14.60
2022-09-12T05:45:03.586Z,14.60
2022-09-12T05:47:55.901Z,14.60
2022-09-12T05:50:22.713Z,14.60
2022-09-12T05:52:50.305Z,14.60
2022-09-12T05:55:17.228Z,14.60
2022-09-12T05:57:44.848Z,14.60
2022-09-12T06:00:49.444Z,14.70
2022-09-12T06:03:16.694Z,14.70
2022-09-12T06:05:45.713Z,14.70
2022-09-12T06:08:15.476Z,14.70
2022-09-12T06:10:51.305Z,14.70
2022-09-12T06:13:17.981Z,14.70
2022-09-12T06:16:06.534Z,14.70
2022-09-12T06:18:33.257Z,14.70
2022-09-12T06:21:11.776Z,14.70
2022-09-12T06:23:39.400Z,14.80
2022-09-12T06:26:17.232Z,14.80
2022-09-12T06:28:51.833Z,14.80
2022-09-12T06:31:37.686Z,14.90
2022-09-12T06:34:09.373Z,15.00
2022-09-12T06:36:42.483Z,15.10
2022-09-12T06:39:17.233Z,15.20
2022-09-12T06:41:47.343Z,15.40
2022-09-12T06:44:21.925Z,15.50
2022-09-12T06:46:48.853Z,15.70
2022-09-12T06:49:27.640Z,15.80
2022-09-12T06:52:26.402Z,15.90
2022-09-12T06:54:51.713Z,16.00
2022-09-12T06:57:18.292Z,16.10
2022-09-12T06:59:44.888Z,16.20
2022-09-12T07:02:11.437Z,16.30
2022-09-12T07:04:38.000Z,16.30
2022-09-12T07:07:04.539Z,16.40
2022-09-12T07:09:31.318Z,16.40
2022-09-12T07:11:57.863Z,16.50
2022-09-12T07:14:24.468Z,16.70
2022-09-12T07:16:51.213Z,16.80
2022-09-12T07:19:17.963Z,17.00
2022-09-12T07:21:44.695Z,17.50
2022-09-12T07:24:11.635Z,18.10
2022-09-12T07:26:40.272Z,18.50
2022-09-12T07:29:34.743Z,18.60
2022-09-12T07:31:54.022Z,18.40
2022-09-12T07:34:20.576Z,18.20
2022-09-12T07:36:47.135Z,18.20
2022-09-12T07:39:13.746Z,18.10
2022-09-12T07:41:40.312Z,18.10
2022-09-12T07:44:07.106Z,18.10
2022-09-12T07:46:33.809Z,18.10
2022-09-12T07:49:01.389Z,18.20
2022-09-12T07:51:30.178Z,18.30
2022-09-12T07:53:57.316Z,18.40
2022-09-12T07:56:29.650Z,18.50
2022-09-12T07:58:57.808Z,18.60
2022-09-12T08:01:24.940Z,18.80
2022-09-12T08:03:57.773Z,18.90
2022-09-12T08:06:25.727Z,19.00
2022-09-12T08:09:05.409Z,19.20
2022-09-12T08:11:32.361Z,19.30
2022-09-12T08:13:59.206Z,19.40
2022-09-12T08:16:29.414Z,19.60
2022-09-12T08:18:59.561Z,19.70
2022-09-12T08:21:32.064Z,19.80
2022-09-12T08:24:06.299Z,19.90
2022-09-12T08:26:33.956Z,20.10
2022-09-12T08:29:01.437Z,20.50
2022-09-12T08:31:28.672Z,20.60
2022-09-12T08:33:57.064Z,20.60
2022-09-12T08:36:28.158Z,20.60
2022-09-12T08:38:59.665Z,20.50
2022-09-12T08:41:41.719Z,20.40
2022-09-12T08:44:46.884Z,20.40
2022-09-12T08:47:30.463Z,20.30
2022-09-12T08:50:02.888Z,20.30
2022-09-12T08:52:38.130Z,20.40
2022-09-12T08:55:06.939Z,20.60
2022-09-12T08:57:33.939Z,20.60
2022-09-12T09:00:03.834Z,20.70
2022-09-12T09:02:54.846Z,20.90
2022-09-12T09:05:38.572Z,21.20
2022-09-12T09:08:22.287Z,21.40
2022-09-12T09:11:14.698Z,21.60
2022-09-12T09:14:11.637Z,22.00
2022-09-12T09:16:42.460Z,22.60
2022-09-12T09:19:30.392Z,22.90
2022-09-12T09:22:00.903Z,23.00
2022-09-12T09:24:38.280Z,22.90
2022-09-12T09:30:03.837Z,23.30
2022-09-12T09:32:36.502Z,23.30
2022-09-12T09:35:22.430Z,23.10
2022-09-12T09:38:06.653Z,23.00
2022-09-12T09:41:04.580Z,23.30
2022-09-12T09:43:31.306Z,23.60
2022-09-12T09:45:58.555Z,23.80
2022-09-12T09:48:51.409Z,24.00
2022-09-12T09:51:38.076Z,24.20
2022-09-12T09:54:27.121Z,24.20
2022-09-12T09:56:53.716Z,24.30
2022-09-12T09:59:29.942Z,24.20
2022-09-12T10:02:02.374Z,24.30
2022-09-12T10:04:41.404Z,24.20
2022-09-12T10:07:25.566Z,24.20
2022-09-12T10:10:13.587Z,24.10
2022-09-12T10:12:40.390Z,24.10
2022-09-12T10:15:21.566Z,24.10
2022-09-12T10:17:49.991Z,24.20
2022-09-12T10:20:34.412Z,24.20
2022-09-12T10:23:21.425Z,24.00
2022-09-12T10:26:03.640Z,23.90
2022-09-12T10:28:38.785Z,23.90
2022-09-12T10:31:36.707Z,23.90
2022-09-12T10:39:57.242Z,23.60
2022-09-12T10:42:45.297Z,23.70
2022-09-12T10:45:38.447Z,23.80
2022-09-12T10:48:30.690Z,24.10
2022-09-12T10:50:58.656Z,24.10
2022-09-12T10:53:34.550Z,24.10
2022-09-12T10:56:13.470Z,24.20
2022-09-12T10:59:22.836Z,24.30
2022-09-12T11:01:55.820Z,24.30
2022-09-12T11:04:26.838Z,24.20
2022-09-12T11:07:05.571Z,24.00
2022-09-12T11:09:49.289Z,24.10
2022-09-12T11:12:48.756Z,24.30
2022-09-12T11:15:24.449Z,24.50
2022-09-12T11:17:54.169Z,24.70
2022-09-12T11:23:50.953Z,24.60
2022-09-12T11:26:27.397Z,24.70
2022-09-12T11:29:05.716Z,24.50
2022-09-12T11:32:22.339Z,24.50
2022-09-12T11:34:57.579Z,24.50
2022-09-12T11:37:51.927Z,24.40
2022-09-12T11:40:29.695Z,24.30
2022-09-12T11:43:12.784Z,24.30
2022-09-12T11:45:45.561Z,24.30
2022-09-12T11:48:31.397Z,24.30
2022-09-12T11:51:00.001Z,24.10
2022-09-12T11:53:32.100Z,24.10
2022-09-12T11:56:04.456Z,24.10
2022-09-12T11:58:31.341Z,24.20
2022-09-12T12:01:17.843Z,24.30
2022-09-12T12:03:46.758Z,24.30
2022-09-12T12:06:45.519Z,24.30
2022-09-12T12:09:13.583Z,24.30
2022-09-12T12:11:48.615Z,24.40
2022-09-12T12:14:26.945Z,24.50
2022-09-12T12:16:53.691Z,24.40
2022-09-12T12:19:36.938Z,24.60
2022-09-12T12:22:20.635Z,24.80
2022-09-12T12:25:06.962Z,24.80
2022-09-12T12:27:54.194Z,24.90
2022-09-12T12:30:29.877Z,24.90
2022-09-12T12:33:09.328Z,25.00
2022-09-12T12:35:35.827Z,25.10
2022-09-12T12:38:04.413Z,25.10
2022-09-12T12:40:31.713Z,25.00
2022-09-12T12:43:03.401Z,24.90
2022-09-12T12:45:29.924Z,24.90
2022-09-12T12:48:04.066Z,24.70
2022-09-12T12:50:40.673Z,24.80
2022-09-12T12:53:18.448Z,24.90
2022-09-12T12:55:45.158Z,24.90
2022-09-12T12:58:35.248Z,25.00
2022-09-12T13:01:20.106Z,24.90
2022-09-12T13:04:15.631Z,24.80
2022-09-12T13:06:45.190Z,24.70
2022-09-12T13:09:31.141Z,24.80
2022-09-12T13:12:23.808Z,25.00
2022-09-12T13:14:58.906Z,25.20
2022-09-12T13:17:46.106Z,25.20
2022-09-12T13:20:27.205Z,25.30
2022-09-12T13:22:56.886Z,25.30
2022-09-12T13:28:48.195Z,25.50
2022-09-12T13:31:26.772Z,25.50
2022-09-12T13:34:20.792Z,25.60
2022-09-12T13:37:11.219Z,25.70
2022-09-12T13:39:48.042Z,25.50
2022-09-12T13:42:27.999Z,25.40
2022-09-12T13:45:33.655Z,25.40
2022-09-12T13:48:02.063Z,25.40
2022-09-12T13:50:36.971Z,25.40
2022-09-12T13:53:23.489Z,25.40
2022-09-12T13:55:59.063Z,25.50
2022-09-12T13:59:04.690Z,25.60
2022-09-12T14:01:50.155Z,25.60
2022-09-12T14:04:21.561Z,25.40
2022-09-12T14:06:50.827Z,25.40
2022-09-12T14:09:25.247Z,25.40
2022-09-12T14:11:53.156Z,25.40
2022-09-12T14:14:36.077Z,25.40
2022-09-12T14:17:23.849Z,25.30
2022-09-12T14:20:01.167Z,25.20
2022-09-12T14:22:28.140Z,25.10
2022-09-12T14:24:55.677Z,25.00
2022-09-12T14:27:52.013Z,24.90
2022-09-12T14:30:34.009Z,24.90
2022-09-12T14:33:12.631Z,25.00
2022-09-12T14:38:34.545Z,25.10
2022-09-12T14:41:13.007Z,25.10
2022-09-12T14:43:51.132Z,25.10
2022-09-12T14:46:27.102Z,25.00
2022-09-12T14:49:41.727Z,25.00
2022-09-12T14:52:31.406Z,25.00
2022-09-12T15:01:36.969Z,24.90
2022-09-12T15:04:03.603Z,24.90
2022-09-12T15:06:32.571Z,24.80
2022-09-12T15:09:13.592Z,24.90
2022-09-12T15:11:40.369Z,24.90
2022-09-12T15:14:13.045Z,25.00
2022-09-12T15:16:40.239Z,25.00
2022-09-12T15:19:06.807Z,25.10
2022-09-12T15:21:33.525Z,25.10
2022-09-12T15:24:02.276Z,25.00
2022-09-12T15:26:29.685Z,24.90
2022-09-12T15:28:56.304Z,24.90
2022-09-12T15:31:28.063Z,24.80
2022-09-12T15:33:56.045Z,24.70
2022-09-12T15:36:47.386Z,24.60
2022-09-12T15:39:12.625Z,24.70
2022-09-12T15:41:54.407Z,24.70
2022-09-12T15:44:21.236Z,24.60
2022-09-12T15:46:51.083Z,24.70
2022-09-12T15:49:18.262Z,24.60
2022-09-12T15:52:00.058Z,24.50
2022-09-12T15:54:26.727Z,24.50
2022-09-12T15:57:01.912Z,24.50
2022-09-12T15:59:28.670Z,24.60
2022-09-12T16:02:11.727Z,24.50
2022-09-12T16:04:38.367Z,24.40
2022-09-12T16:07:05.030Z,24.40
2022-09-12T16:09:43.152Z,24.30
2022-09-12T16:15:44.442Z,24.30
2022-09-12T16:18:11.263Z,24.10
2022-09-12T16:20:45.724Z,24.10
2022-09-12T16:23:13.301Z,24.10
2022-09-12T16:25:41.801Z,24.00
2022-09-12T16:28:08.592Z,23.90
2022-09-12T16:30:35.995Z,23.80
2022-09-12T16:33:12.347Z,23.70
2022-09-12T16:35:38.959Z,23.60
2022-09-12T16:38:19.456Z,23.50
2022-09-12T16:40:47.812Z,23.50
2022-09-12T16:43:14.914Z,23.40
2022-09-12T16:46:20.189Z,23.40
2022-09-12T16:48:55.331Z,23.30
2022-09-12T16:51:28.176Z,23.30
2022-09-12T16:53:55.762Z,23.20
2022-09-12T16:56:23.580Z,23.20
2022-09-12T16:58:51.242Z,23.10
2022-09-12T17:01:21.494Z,23.10
2022-09-12T17:03:48.943Z,23.10
2022-09-12T17:06:29.737Z,23.00
2022-09-12T17:09:00.428Z,23.00
2022-09-12T17:14:39.324Z,22.80
2022-09-12T17:17:06.317Z,22.80
2022-09-12T17:19:33.142Z,22.70
2022-09-12T17:21:59.979Z,22.70
2022-09-12T17:24:26.956Z,22.60
2022-09-12T17:26:54.096Z,22.60
2022-09-12T17:29:30.076Z,22.50
2022-09-12T17:31:57.827Z,22.50
2022-09-12T17:39:42.301Z,22.40
2022-09-12T17:42:09.008Z,22.30
2022-09-12T17:44:35.664Z,22.30
2022-09-12T17:47:04.119Z,22.20
2022-09-12T17:49:36.799Z,22.20
2022-09-12T17:52:03.570Z,22.10
2022-09-12T17:54:30.201Z,22.10
2022-09-12T17:57:16.679Z,22.00
2022-09-12T17:59:43.393Z,22.00
2022-09-12T18:02:12.676Z,21.90
2022-09-12T18:04:41.100Z,21.80
2022-09-12T18:07:08.097Z,21.70
2022-09-12T18:09:41.374Z,21.60
2022-09-12T18:12:08.782Z,21.60
2022-09-12T18:14:52.504Z,21.50
2022-09-12T18:17:19.145Z,21.50
2022-09-12T18:19:47.552Z,21.40
2022-09-12T18:22:17.325Z,21.30
2022-09-12T18:24:52.260Z,21.30
2022-09-12T18:27:18.827Z,21.30
2022-09-12T18:30:19.642Z,21.20
2022-09-12T18:32:44.367Z,21.20
2022-09-12T18:35:11.536Z,21.10
2022-09-12T18:37:39.871Z,21.10
2022-09-12T18:40:06.805Z,21.00
2022-09-12T18:42:33.554Z,20.90
2022-09-12T18:45:00.182Z,20.90
2022-09-12T18:47:38.129Z,20.80
2022-09-12T18:50:05.037Z,20.80
2022-09-12T18:52:31.626Z,20.70
2022-09-12T18:54:58.178Z,20.70
2022-09-12T18:57:25.141Z,20.70
2022-09-12T18:59:51.756Z,20.70
2022-09-12T19:02:18.480Z,20.70
2022-09-12T19:04:52.689Z,20.70
2022-09-12T19:07:19.520Z,20.60
2022-09-12T19:09:46.257Z,20.60
2022-09-12T19:12:12.977Z,20.60
2022-09-12T19:14:39.635Z,20.60
2022-09-12T19:17:06.312Z,20.60
2022-09-12T19:19:32.875Z,20.60
2022-09-12T19:21:59.593Z,20.60
2022-09-12T19:24:29.248Z,20.60
2022-09-12T19:26:55.880Z,20.50
2022-09-12T19:29:22.630Z,20.50
2022-09-12T19:31:49.645Z,20.50
2022-09-12T19:34:16.530Z,20.40
2022-09-12T19:36:45.755Z,20.40
2022-09-12T19:39:14.499Z,20.40
2022-09-12T19:41:41.087Z,20.40
2022-09-12T19:44:07.821Z,20.30
2022-09-12T19:46:34.591Z,20.30
2022-09-12T19:49:01.175Z,20.30
2022-09-12T19:51:27.747Z,20.20
2022-09-12T19:53:54.299Z,20.20
2022-09-12T19:56:21.257Z,20.20
2022-09-12T19:58:53.443Z,20.20
2022-09-12T20:01:24.466Z,20.20
2022-09-12T20:03:51.246Z,20.20
2022-09-12T20:13:20.300Z,20.10
2022-09-12T20:15:52.054Z,20.00
2022-09-12T20:18:18.703Z,20.00
2022-09-12T20:20:46.620Z,19.90
2022-09-12T20:23:13.368Z,19.90
2022-09-12T20:25:52.332Z,19.90
2022-09-12T20:28:19.048Z,19.80
2022-09-12T20:30:45.642Z,19.80
2022-09-12T20:33:12.315Z,19.70
2022-09-12T20:35:38.944Z,19.70
2022-09-12T20:38:05.522Z,19.70
2022-09-12T20:40:32.105Z,19.70
2022-09-12T20:42:58.884Z,19.60
2022-09-12T20:45:33.296Z,19.60
2022-09-12T20:48:00.073Z,19.60
2022-09-12T20:50:29.709Z,19.60
2022-09-12T20:52:56.358Z,19.50
2022-09-12T20:55:28.761Z,19.50
2022-09-12T20:57:55.524Z,19.40
2022-09-12T21:00:24.277Z,19.40
2022-09-12T21:35:50.350Z,19.20
2022-09-12T21:38:18.455Z,19.20
2022-09-12T21:43:30.626Z,19.20
2022-09-12T21:48:42.842Z,19.20
2022-09-12T21:51:10.078Z,19.20
2022-09-12T21:53:36.747Z,19.20
2022-09-12T21:56:20.860Z,19.20
2022-09-12T21:58:47.450Z,19.20
2022-09-12T22:01:19.758Z,19.20
2022-09-12T22:03:46.478Z,19.20
2022-09-12T22:06:18.622Z,19.20
2022-09-12T22:08:48.548Z,19.20
2022-09-12T22:11:15.175Z,19.20
2022-09-12T22:13:42.107Z,19.20
2022-09-12T22:16:08.945Z,19.20
2022-09-12T22:18:36.845Z,19.20
2022-09-12T22:21:14.974Z,19.20
2022-09-12T22:23:41.993Z,19.20
2022-09-12T22:26:08.621Z,19.20
2022-09-12T22:28:35.311Z,19.20
2022-09-12T22:31:02.077Z,19.20
2022-09-12T22:33:28.704Z,19.20
2022-09-12T22:36:08.156Z,19.20
2022-09-12T22:38:34.812Z,19.20
2022-09-12T22:41:06.437Z,19.20
2022-09-12T22:43:34.429Z,19.20
2022-09-12T22:46:29.203Z,19.20
2022-09-12T23:35:49.304Z,18.90
2022-09-12T23:38:16.338Z,18.90
2022-09-12T23:40:43.017Z,18.90
2022-09-12T23:43:09.658Z,18.90
2022-09-12T23:45:42.321Z,18.80
